Seawolf — WDE7235 — position and weather

sailwx.info

Track history (hours):
 
Tides and Currents Weather Stations Pressure Air Temp Water Temp Dewpoint Dewpoint Depression Visibility Wind Speed Wind Dir Waves Ship Positions

Oceanographic research ship Seawolf (United States)

Owner: School of Marine and Atmospheric Sciences, Stony Brook University, NY, Stony Brook, NY. More information available from US FCC via Universal Licensing System and Coast Guard Vessel Documentation Center.

Last reported at 2017-Oct-12 12:27 UTC. Time now 2017-Oct-17 15:11 UTC.
Position N 40°48' W 073°48'.

Length 24 m; draft 3.5 m.

Type: Other ship. MMSI: 367390740.

Date/timePositionNaut miles runAvg speedWind from/ knotsBaromVisibWave heightAir tempDewpointWater temp
2017-Oct-12 12:27N 40°48' W 073°48'3 7.7
2017-Oct-12 12:00N 40°48' W 073°53'3 5.4
2017-Oct-12 11:30N 40°47' W 073°56'2 4.7
2017-Oct-12 11:00N 40°45' W 073°58'3 5.4
2017-Oct-12 10:30N 40°42' W 073°59'3 6.3
2017-Oct-12 10:00N 40°40' W 074°02'2 3.0
2017-Oct-12 09:26N 40°41' W 074°04'0 0.0
2017-Oct-12 08:59N 40°41' W 074°04'0 0.0
2017-Oct-12 08:29N 40°41' W 074°04'0 0.0
2017-Oct-12 07:59N 40°41' W 074°04'0 0.0
2017-Oct-12 07:29N 40°41' W 074°04'0 0.0
2017-Oct-12 06:59N 40°41' W 074°04'0 0.0
2017-Oct-12 06:29N 40°41' W 074°04'0 0.0
2017-Oct-12 05:59N 40°41' W 074°04'0 0.0
2017-Oct-12 05:29N 40°41' W 074°04'0 0.0
2017-Oct-12 04:59N 40°41' W 074°04'0 0.0
2017-Oct-12 04:29N 40°41' W 074°04'0 0.0
2017-Oct-12 03:59N 40°41' W 074°04'0 0.0
2017-Oct-12 03:29N 40°41' W 074°04'0 0.0
2017-Oct-12 02:59N 40°41' W 074°04'0 0.0
2017-Oct-12 02:29N 40°41' W 074°04'0 0.0
2017-Oct-12 01:59N 40°41' W 074°04'0 0.0
2017-Oct-12 01:29N 40°41' W 074°04'0 0.0
2017-Oct-12 00:59N 40°41' W 074°04'1 2.0
2017-Oct-12 00:30N 40°40' W 074°03'4 7.2
2017-Oct-11 23:59N 40°37' W 074°03'3 6.9
2017-Oct-11 23:29N 40°33' W 074°01'3 6.5
2017-Oct-11 22:59N 40°31' W 073°59'4 6.5
2017-Oct-11 22:23N 40°30' W 073°54'3 7.1
2017-Oct-11 21:58N 40°31' W 073°50'1 0.5
2017-Oct-11 20:01N 40°31' W 073°49'0 3.9
2017-Oct-11 20:00N 40°31' W 073°49'0 0.2
2017-Oct-11 18:54N 40°31' W 073°49'1 0.4
2017-Oct-11 17:09N 40°32' W 073°49'1 2.3
2017-Oct-11 16:51N 40°31' W 073°50'0 0.0
2017-Oct-10 13:30N 40°31' W 073°50'0 0.2
2017-Oct-10 11:28N 40°32' W 073°50'0 0.7
2017-Oct-10 10:46N 40°31' W 073°50'3 8.0
2017-Oct-10 10:25N 40°30' W 073°54'4 9.0
2017-Oct-10 10:00N 40°31' W 073°59'510.2
2017-Oct-10 09:30N 40°35' W 074°02'510.5
2017-Oct-10 09:00N 40°40' W 074°03'1 1.9
2017-Oct-10 08:28N 40°41' W 074°04'0 0.0
2017-Oct-10 07:58N 40°41' W 074°04'0 0.0
2017-Oct-10 07:25N 40°41' W 074°04'0 0.0
2017-Oct-10 06:58N 40°41' W 074°04'0 0.0
2017-Oct-10 06:28N 40°41' W 074°04'0 0.0
2017-Oct-10 05:58N 40°41' W 074°04'0 0.0
2017-Oct-10 05:28N 40°41' W 074°04'0 0.0
2017-Oct-10 04:58N 40°41' W 074°04'0 0.0
2017-Oct-10 04:28N 40°41' W 074°04'0 0.0
2017-Oct-10 03:58N 40°41' W 074°04'0 0.0
2017-Oct-10 03:28N 40°41' W 074°04'0 0.0
2017-Oct-10 02:58N 40°41' W 074°04'0 0.0
2017-Oct-10 02:28N 40°41' W 074°04'0 0.0
2017-Oct-10 01:55N 40°41' W 074°04'0 0.0
2017-Oct-10 01:28N 40°41' W 074°04'0 0.0
2017-Oct-10 00:58N 40°41' W 074°04'0 0.0
2017-Oct-10 00:28N 40°41' W 074°04'0 0.0
2017-Oct-09 23:58N 40°41' W 074°04'0 0.0
2017-Oct-09 23:28N 40°41' W 074°04'0 0.0
2017-Oct-09 22:58N 40°41' W 074°04'0 0.0
2017-Oct-09 22:28N 40°41' W 074°04'0 0.0
2017-Oct-09 21:58N 40°41' W 074°04'0 0.0
2017-Oct-09 21:28N 40°41' W 074°04'0 0.0
2017-Oct-09 20:58N 40°41' W 074°04'0 0.0
2017-Oct-09 20:25N 40°41' W 074°04'1 2.7
2017-Oct-09 20:00N 40°40' W 074°03'5 9.9
2017-Oct-09 19:30N 40°43' W 073°58'611.1
2017-Oct-09 19:00N 40°48' W 073°54'  
2017-Oct-05 10:43N 40°48' W 073°48'210.7
2017-Oct-05 10:30N 40°48' W 073°51'510.9
2017-Oct-05 10:00N 40°45' W 073°58'510.1
2017-Oct-05 09:30N 40°41' W 074°01'2 4.5
2017-Oct-05 08:58N 40°41' W 074°04'0 0.0
2017-Oct-05 08:28N 40°41' W 074°04'0 0.0
2017-Oct-05 07:58N 40°41' W 074°04'0 0.0
2017-Oct-05 07:25N 40°41' W 074°04'0 0.0
2017-Oct-05 06:58N 40°41' W 074°04'0 0.0
2017-Oct-05 06:28N 40°41' W 074°04'0 0.0
2017-Oct-05 05:58N 40°41' W 074°04'0 0.0
2017-Oct-05 05:28N 40°41' W 074°04'0 0.0
2017-Oct-05 04:58N 40°41' W 074°04'0 0.0
2017-Oct-05 04:28N 40°41' W 074°04'0 0.0
2017-Oct-05 03:58N 40°41' W 074°04'0 0.0
2017-Oct-05 03:28N 40°41' W 074°04'0 0.0
2017-Oct-05 02:58N 40°41' W 074°04'0 0.0
2017-Oct-05 02:28N 40°41' W 074°04'0 0.0
2017-Oct-05 01:55N 40°41' W 074°04'0 0.0
2017-Oct-05 01:25N 40°41' W 074°04'0 0.0
2017-Oct-05 00:58N 40°41' W 074°04'0 0.0
2017-Oct-05 00:28N 40°41' W 074°04'0 0.0
2017-Oct-04 23:58N 40°41' W 074°04'0 0.0
2017-Oct-04 23:28N 40°41' W 074°04'0 0.0
2017-Oct-04 22:55N 40°41' W 074°04'0 0.0
2017-Oct-04 22:25N 40°41' W 074°04'2 4.8
2017-Oct-04 21:59N 40°39' W 074°03'5 9.7
2017-Oct-04 21:30N 40°35' W 074°02'5 9.7
2017-Oct-04 20:58N 40°30' W 073°58'3 4.5
2017-Oct-04 20:24N 40°32' W 073°55'1 2.7
2017-Oct-04 19:51N 40°31' W 073°53'1 2.9
2017-Oct-04 19:24N 40°30' W 073°52'2 4.0
2017-Oct-04 18:54N 40°32' W 073°50'1 0.6
2017-Oct-04 17:00N 40°31' W 073°48'1 1.6
2017-Oct-04 16:21N 40°31' W 073°50'2 1.4
2017-Oct-04 15:04N 40°32' W 073°47'0 3.5
2017-Oct-04 15:00N 40°32' W 073°48'1 0.9
2017-Oct-04 14:06N 40°32' W 073°49'0 2.3
2017-Oct-04 14:00N 40°32' W 073°48'1 1.2
2017-Oct-04 13:27N 40°32' W 073°48'2 2.6
2017-Oct-04 12:51N 40°31' W 073°50'0 0.4
2017-Oct-04 12:24N 40°31' W 073°50'1 2.8
2017-Oct-04 11:59N 40°32' W 073°48'3 5.6
2017-Oct-04 11:30N 40°34' W 073°50'2 3.4
2017-Oct-04 11:01N 40°33' W 073°52'4 8.2
2017-Oct-04 10:30N 40°30' W 073°56'4 7.3
2017-Oct-04 10:00N 40°32' W 074°00'4 7.9
2017-Oct-04 09:30N 40°36' W 074°02'4 8.1
2017-Oct-04 09:00N 40°40' W 074°03'2 3.4
2017-Oct-04 08:30N 40°41' W 074°04'0 0.0
2017-Oct-04 08:00N 40°41' W 074°04'0 0.0
2017-Oct-04 07:30N 40°41' W 074°04'0 0.0
2017-Oct-04 07:00N 40°41' W 074°04'0 0.0
2017-Oct-04 06:30N 40°41' W 074°04'0 0.0
2017-Oct-04 06:00N 40°41' W 074°04'0 0.0
2017-Oct-04 05:30N 40°41' W 074°04'0 0.0
2017-Oct-04 04:57N 40°41' W 074°04'0 0.0
2017-Oct-04 04:30N 40°41' W 074°04'0 0.0
2017-Oct-04 04:00N 40°41' W 074°04'0 0.0
2017-Oct-04 03:27N 40°41' W 074°04'0 0.0
2017-Oct-04 03:00N 40°41' W 074°04'0 0.0
2017-Oct-04 02:30N 40°41' W 074°04'0 0.0
2017-Oct-04 02:00N 40°41' W 074°04'0 0.0
2017-Oct-04 01:30N 40°41' W 074°04'0 0.0
2017-Oct-04 01:00N 40°41' W 074°04'0 0.0
2017-Oct-04 00:30N 40°41' W 074°04'0 0.0
2017-Oct-04 00:00N 40°41' W 074°04'2 4.6
2017-Oct-03 23:31N 40°39' W 074°03'510.1
2017-Oct-03 23:00N 40°34' W 074°02'7 8.0
2017-Oct-03 22:08N 40°30' W 073°54'2 8.4
2017-Oct-03 21:56N 40°31' W 073°52'2 1.4
2017-Oct-03 20:13N 40°33' W 073°50'2 8.6
2017-Oct-03 19:59N 40°31' W 073°50'2 2.9
2017-Oct-03 19:23N 40°30' W 073°52'1 1.4
2017-Oct-03 19:00N 40°30' W 073°52'2 3.9
2017-Oct-03 18:29N 40°31' W 073°54'1 2.7
2017-Oct-03 18:00N 40°31' W 073°52'2 1.5
2017-Oct-03 16:25N 40°31' W 073°49'1 0.2
2017-Oct-03 11:50N 40°32' W 073°49'1 2.8
2017-Oct-03 11:27N 40°31' W 073°50'7 7.1
2017-Oct-03 10:30N 40°31' W 073°59'4 7.5
2017-Oct-03 10:00N 40°34' W 074°01'4 7.9
2017-Oct-03 09:30N 40°38' W 074°03'4 7.1
2017-Oct-03 09:00N 40°41' W 074°04'0 0.0
2017-Oct-03 08:30N 40°41' W 074°04'0 0.0
2017-Oct-03 08:00N 40°41' W 074°04'0 0.0
2017-Oct-03 07:30N 40°41' W 074°04'0 0.0
2017-Oct-03 07:00N 40°41' W 074°04'0 0.0
2017-Oct-03 06:30N 40°41' W 074°04'0 0.0
2017-Oct-03 06:00N 40°41' W 074°04'0 0.0
2017-Oct-03 05:30N 40°41' W 074°04'0 0.0
2017-Oct-03 05:00N 40°41' W 074°04'0 0.0
2017-Oct-03 04:30N 40°41' W 074°04'0 0.0
2017-Oct-03 04:00N 40°41' W 074°04'0 0.0
2017-Oct-03 03:30N 40°41' W 074°04'0 0.0
2017-Oct-03 03:00N 40°41' W 074°04'0 0.0
2017-Oct-03 02:30N 40°41' W 074°04'0 0.0
2017-Oct-03 02:00N 40°41' W 074°04'0 0.0
2017-Oct-03 01:27N 40°41' W 074°04'0 0.0
2017-Oct-03 01:00N 40°41' W 074°04'0 0.0
2017-Oct-03 00:30N 40°41' W 074°04'0 0.0
2017-Oct-03 00:00N 40°41' W 074°04'0 0.0
2017-Oct-02 23:30N 40°41' W 074°04'2 3.1
2017-Oct-02 23:00N 40°41' W 074°02'3 6.7
2017-Oct-02 22:30N 40°43' W 073°59'3 6.4
2017-Oct-02 22:00N 40°45' W 073°57'3 5.0
2017-Oct-02 21:24N 40°48' W 073°55'3 6.7
2017-Oct-02 20:59N 40°48' W 073°51'  
Track history (hours):
 
Tides and Currents Weather Stations Pressure Air Temp Water Temp Dewpoint Dewpoint Depression Visibility Wind Speed Wind Dir Waves Ship Positions

Oceanographic research ship Seawolf (United States)

Owner: School of Marine and Atmospheric Sciences, Stony Brook University, NY, Stony Brook, NY. More information available from US FCC via Universal Licensing System and Coast Guard Vessel Documentation Center.

Last reported at 2017-Oct-12 12:27 UTC. Time now 2017-Oct-17 15:11 UTC.
Position N 40°48' W 073°48'.

Length 24 m; draft 3.5 m.

Type: Other ship. MMSI: 367390740.

Date/timePositionNaut miles runAvg speedWind from/ knotsBaromVisibWave heightAir tempDewpointWater temp
2017-Oct-12 12:27N 40°48' W 073°48'3 7.7
2017-Oct-12 12:00N 40°48' W 073°53'3 5.4
2017-Oct-12 11:30N 40°47' W 073°56'2 4.7
2017-Oct-12 11:00N 40°45' W 073°58'3 5.4
2017-Oct-12 10:30N 40°42' W 073°59'3 6.3
2017-Oct-12 10:00N 40°40' W 074°02'2 3.0
2017-Oct-12 09:26N 40°41' W 074°04'0 0.0
2017-Oct-12 08:59N 40°41' W 074°04'0 0.0
2017-Oct-12 08:29N 40°41' W 074°04'0 0.0
2017-Oct-12 07:59N 40°41' W 074°04'0 0.0
2017-Oct-12 07:29N 40°41' W 074°04'0 0.0
2017-Oct-12 06:59N 40°41' W 074°04'0 0.0
2017-Oct-12 06:29N 40°41' W 074°04'0 0.0
2017-Oct-12 05:59N 40°41' W 074°04'0 0.0
2017-Oct-12 05:29N 40°41' W 074°04'0 0.0
2017-Oct-12 04:59N 40°41' W 074°04'0 0.0
2017-Oct-12 04:29N 40°41' W 074°04'0 0.0
2017-Oct-12 03:59N 40°41' W 074°04'0 0.0
2017-Oct-12 03:29N 40°41' W 074°04'0 0.0
2017-Oct-12 02:59N 40°41' W 074°04'0 0.0
2017-Oct-12 02:29N 40°41' W 074°04'0 0.0
2017-Oct-12 01:59N 40°41' W 074°04'0 0.0
2017-Oct-12 01:29N 40°41' W 074°04'0 0.0
2017-Oct-12 00:59N 40°41' W 074°04'1 2.0
2017-Oct-12 00:30N 40°40' W 074°03'4 7.2
2017-Oct-11 23:59N 40°37' W 074°03'3 6.9
2017-Oct-11 23:29N 40°33' W 074°01'3 6.5
2017-Oct-11 22:59N 40°31' W 073°59'4 6.5
2017-Oct-11 22:23N 40°30' W 073°54'3 7.1
2017-Oct-11 21:58N 40°31' W 073°50'1 0.5
2017-Oct-11 20:01N 40°31' W 073°49'0 3.9
2017-Oct-11 20:00N 40°31' W 073°49'0 0.2
2017-Oct-11 18:54N 40°31' W 073°49'1 0.4
2017-Oct-11 17:09N 40°32' W 073°49'1 2.3
2017-Oct-11 16:51N 40°31' W 073°50'0 0.0
2017-Oct-10 13:30N 40°31' W 073°50'0 0.2
2017-Oct-10 11:28N 40°32' W 073°50'0 0.7
2017-Oct-10 10:46N 40°31' W 073°50'3 8.0
2017-Oct-10 10:25N 40°30' W 073°54'4 9.0
2017-Oct-10 10:00N 40°31' W 073°59'510.2
2017-Oct-10 09:30N 40°35' W 074°02'510.5
2017-Oct-10 09:00N 40°40' W 074°03'1 1.9
2017-Oct-10 08:28N 40°41' W 074°04'0 0.0
2017-Oct-10 07:58N 40°41' W 074°04'0 0.0
2017-Oct-10 07:25N 40°41' W 074°04'0 0.0
2017-Oct-10 06:58N 40°41' W 074°04'0 0.0
2017-Oct-10 06:28N 40°41' W 074°04'0 0.0
2017-Oct-10 05:58N 40°41' W 074°04'0 0.0
2017-Oct-10 05:28N 40°41' W 074°04'0 0.0
2017-Oct-10 04:58N 40°41' W 074°04'0 0.0
2017-Oct-10 04:28N 40°41' W 074°04'0 0.0
2017-Oct-10 03:58N 40°41' W 074°04'0 0.0
2017-Oct-10 03:28N 40°41' W 074°04'0 0.0
2017-Oct-10 02:58N 40°41' W 074°04'0 0.0
2017-Oct-10 02:28N 40°41' W 074°04'0 0.0
2017-Oct-10 01:55N 40°41' W 074°04'0 0.0
2017-Oct-10 01:28N 40°41' W 074°04'0 0.0
2017-Oct-10 00:58N 40°41' W 074°04'0 0.0
2017-Oct-10 00:28N 40°41' W 074°04'0 0.0
2017-Oct-09 23:58N 40°41' W 074°04'0 0.0
2017-Oct-09 23:28N 40°41' W 074°04'0 0.0
2017-Oct-09 22:58N 40°41' W 074°04'0 0.0
2017-Oct-09 22:28N 40°41' W 074°04'0 0.0
2017-Oct-09 21:58N 40°41' W 074°04'0 0.0
2017-Oct-09 21:28N 40°41' W 074°04'0 0.0
2017-Oct-09 20:58N 40°41' W 074°04'0 0.0
2017-Oct-09 20:25N 40°41' W 074°04'1 2.7
2017-Oct-09 20:00N 40°40' W 074°03'5 9.9
2017-Oct-09 19:30N 40°43' W 073°58'611.1
2017-Oct-09 19:00N 40°48' W 073°54'  
2017-Oct-05 10:43N 40°48' W 073°48'210.7
2017-Oct-05 10:30N 40°48' W 073°51'510.9
2017-Oct-05 10:00N 40°45' W 073°58'510.1
2017-Oct-05 09:30N 40°41' W 074°01'2 4.5
2017-Oct-05 08:58N 40°41' W 074°04'0 0.0
2017-Oct-05 08:28N 40°41' W 074°04'0 0.0
2017-Oct-05 07:58N 40°41' W 074°04'0 0.0
2017-Oct-05 07:25N 40°41' W 074°04'0 0.0
2017-Oct-05 06:58N 40°41' W 074°04'0 0.0
2017-Oct-05 06:28N 40°41' W 074°04'0 0.0
2017-Oct-05 05:58N 40°41' W 074°04'0 0.0
2017-Oct-05 05:28N 40°41' W 074°04'0 0.0
2017-Oct-05 04:58N 40°41' W 074°04'0 0.0
2017-Oct-05 04:28N 40°41' W 074°04'0 0.0
2017-Oct-05 03:58N 40°41' W 074°04'0 0.0
2017-Oct-05 03:28N 40°41' W 074°04'0 0.0
2017-Oct-05 02:58N 40°41' W 074°04'0 0.0
2017-Oct-05 02:28N 40°41' W 074°04'0 0.0
2017-Oct-05 01:55N 40°41' W 074°04'0 0.0
2017-Oct-05 01:25N 40°41' W 074°04'0 0.0
2017-Oct-05 00:58N 40°41' W 074°04'0 0.0
2017-Oct-05 00:28N 40°41' W 074°04'0 0.0
2017-Oct-04 23:58N 40°41' W 074°04'0 0.0
2017-Oct-04 23:28N 40°41' W 074°04'0 0.0
2017-Oct-04 22:55N 40°41' W 074°04'0 0.0
2017-Oct-04 22:25N 40°41' W 074°04'2 4.8
2017-Oct-04 21:59N 40°39' W 074°03'5 9.7
2017-Oct-04 21:30N 40°35' W 074°02'5 9.7
2017-Oct-04 20:58N 40°30' W 073°58'3 4.5
2017-Oct-04 20:24N 40°32' W 073°55'1 2.7
2017-Oct-04 19:51N 40°31' W 073°53'1 2.9
2017-Oct-04 19:24N 40°30' W 073°52'2 4.0
2017-Oct-04 18:54N 40°32' W 073°50'1 0.6
2017-Oct-04 17:00N 40°31' W 073°48'1 1.6
2017-Oct-04 16:21N 40°31' W 073°50'2 1.4
2017-Oct-04 15:04N 40°32' W 073°47'0 3.5
2017-Oct-04 15:00N 40°32' W 073°48'1 0.9
2017-Oct-04 14:06N 40°32' W 073°49'0 2.3
2017-Oct-04 14:00N 40°32' W 073°48'1 1.2
2017-Oct-04 13:27N 40°32' W 073°48'2 2.6
2017-Oct-04 12:51N 40°31' W 073°50'0 0.4
2017-Oct-04 12:24N 40°31' W 073°50'1 2.8
2017-Oct-04 11:59N 40°32' W 073°48'3 5.6
2017-Oct-04 11:30N 40°34' W 073°50'2 3.4
2017-Oct-04 11:01N 40°33' W 073°52'4 8.2
2017-Oct-04 10:30N 40°30' W 073°56'4 7.3
2017-Oct-04 10:00N 40°32' W 074°00'4 7.9
2017-Oct-04 09:30N 40°36' W 074°02'4 8.1
2017-Oct-04 09:00N 40°40' W 074°03'2 3.4
2017-Oct-04 08:30N 40°41' W 074°04'0 0.0
2017-Oct-04 08:00N 40°41' W 074°04'0 0.0
2017-Oct-04 07:30N 40°41' W 074°04'0 0.0
2017-Oct-04 07:00N 40°41' W 074°04'0 0.0
2017-Oct-04 06:30N 40°41' W 074°04'0 0.0
2017-Oct-04 06:00N 40°41' W 074°04'0 0.0
2017-Oct-04 05:30N 40°41' W 074°04'0 0.0
2017-Oct-04 04:57N 40°41' W 074°04'0 0.0
2017-Oct-04 04:30N 40°41' W 074°04'0 0.0
2017-Oct-04 04:00N 40°41' W 074°04'0 0.0
2017-Oct-04 03:27N 40°41' W 074°04'0 0.0
2017-Oct-04 03:00N 40°41' W 074°04'0 0.0
2017-Oct-04 02:30N 40°41' W 074°04'0 0.0
2017-Oct-04 02:00N 40°41' W 074°04'0 0.0
2017-Oct-04 01:30N 40°41' W 074°04'0 0.0
2017-Oct-04 01:00N 40°41' W 074°04'0 0.0
2017-Oct-04 00:30N 40°41' W 074°04'0 0.0
2017-Oct-04 00:00N 40°41' W 074°04'2 4.6
2017-Oct-03 23:31N 40°39' W 074°03'510.1
2017-Oct-03 23:00N 40°34' W 074°02'7 8.0
2017-Oct-03 22:08N 40°30' W 073°54'2 8.4
2017-Oct-03 21:56N 40°31' W 073°52'2 1.4
2017-Oct-03 20:13N 40°33' W 073°50'2 8.6
2017-Oct-03 19:59N 40°31' W 073°50'2 2.9
2017-Oct-03 19:23N 40°30' W 073°52'1 1.4
2017-Oct-03 19:00N 40°30' W 073°52'2 3.9
2017-Oct-03 18:29N 40°31' W 073°54'1 2.7
2017-Oct-03 18:00N 40°31' W 073°52'2 1.5
2017-Oct-03 16:25N 40°31' W 073°49'1 0.2
2017-Oct-03 11:50N 40°32' W 073°49'1 2.8
2017-Oct-03 11:27N 40°31' W 073°50'7 7.1
2017-Oct-03 10:30N 40°31' W 073°59'4 7.5
2017-Oct-03 10:00N 40°34' W 074°01'4 7.9
2017-Oct-03 09:30N 40°38' W 074°03'4 7.1
2017-Oct-03 09:00N 40°41' W 074°04'0 0.0
2017-Oct-03 08:30N 40°41' W 074°04'0 0.0
2017-Oct-03 08:00N 40°41' W 074°04'0 0.0
2017-Oct-03 07:30N 40°41' W 074°04'0 0.0
2017-Oct-03 07:00N 40°41' W 074°04'0 0.0
2017-Oct-03 06:30N 40°41' W 074°04'0 0.0
2017-Oct-03 06:00N 40°41' W 074°04'0 0.0
2017-Oct-03 05:30N 40°41' W 074°04'0 0.0
2017-Oct-03 05:00N 40°41' W 074°04'0 0.0
2017-Oct-03 04:30N 40°41' W 074°04'0 0.0
2017-Oct-03 04:00N 40°41' W 074°04'0 0.0
2017-Oct-03 03:30N 40°41' W 074°04'0 0.0
2017-Oct-03 03:00N 40°41' W 074°04'0 0.0
2017-Oct-03 02:30N 40°41' W 074°04'0 0.0
2017-Oct-03 02:00N 40°41' W 074°04'0 0.0
2017-Oct-03 01:27N 40°41' W 074°04'0 0.0
2017-Oct-03 01:00N 40°41' W 074°04'0 0.0
2017-Oct-03 00:30N 40°41' W 074°04'0 0.0
2017-Oct-03 00:00N 40°41' W 074°04'0 0.0
2017-Oct-02 23:30N 40°41' W 074°04'2 3.1
2017-Oct-02 23:00N 40°41' W 074°02'3 6.7
2017-Oct-02 22:30N 40°43' W 073°59'3 6.4
2017-Oct-02 22:00N 40°45' W 073°57'3 5.0
2017-Oct-02 21:24N 40°48' W 073°55'3 6.7
2017-Oct-02 20:59N 40°48' W 073°51'  

Dump ship's entire track history